Time;durP1;ratioP1;P1;durP2;ratioP2;P2;SDS_P1;SDS_P2;PMS_P1;PMS_P2;Temp;Humidity;BMP_temperature;BMP_pressure;BME280_temperature;BME280_humidity;BME280_pressure;Samples;Min_cycle;Max_cycle;Signal;HPM_P1;HPM_P2
2023/06/08 00:00:52;;;;;;;2.77;2.57;;;19.60;57.30;18.80;96330.00;;;;6136415;23;20559;-82
2023/06/08 00:03:19;;;;;;;3.20;3.00;;;19.60;57.50;18.80;96329.00;;;;6110053;23;20195;-81
2023/06/08 00:05:50;;;;;;;2.47;2.33;;;19.60;57.50;18.80;96329.00;;;;6136000;23;20175;-82
2023/06/08 00:08:17;;;;;;;2.47;2.33;;;19.60;57.70;18.70;96327.00;;;;6102644;23;20260;-82
2023/06/08 00:10:45;;;;;;;3.83;3.03;;;19.60;57.80;18.70;96316.00;;;;6127597;23;20195;-82
2023/06/08 00:13:16;;;;;;;3.00;2.70;;;19.60;57.90;18.70;96325.00;;;;6127739;23;20440;-82
2023/06/08 00:15:43;;;;;;;2.70;2.50;;;19.60;58.00;18.70;96325.00;;;;6085103;23;20163;-81
2023/06/08 00:18:12;;;;;;;2.47;2.37;;;19.50;57.90;18.70;96324.00;;;;6136964;23;20205;-82
2023/06/08 00:20:40;;;;;;;3.07;2.87;;;19.50;58.10;18.70;96328.00;;;;6137130;23;20182;-82
2023/06/08 00:23:07;;;;;;;2.57;2.37;;;19.50;58.20;18.70;96325.00;;;;6135780;23;20175;-82
2023/06/08 00:25:34;;;;;;;2.67;2.40;;;19.50;58.40;18.70;96317.00;;;;6130771;23;20204;-82
2023/06/08 00:28:02;;;;;;;2.63;2.43;;;19.50;58.50;18.70;96317.00;;;;6129478;23;20202;-81
2023/06/08 00:30:30;;;;;;;3.10;2.70;;;19.50;58.50;18.70;96308.00;;;;6104260;23;20195;-82
2023/06/08 00:32:57;;;;;;;2.47;2.27;;;19.50;58.60;18.70;96316.00;;;;6124071;23;20182;-82
2023/06/08 00:35:26;;;;;;;2.93;2.63;;;19.50;58.60;18.70;96311.00;;;;6123261;23;20173;-81
2023/06/08 00:37:54;;;;;;;3.00;2.70;;;19.50;58.90;18.70;96313.00;;;;6123109;23;20250;-82
2023/06/08 00:40:22;;;;;;;3.03;2.70;;;19.50;58.80;18.70;96312.00;;;;6125279;23;20218;-82
2023/06/08 00:42:50;;;;;;;2.73;2.57;;;19.50;58.90;18.60;96311.00;;;;6075972;23;20175;-82
2023/06/08 00:45:18;;;;;;;2.73;2.53;;;19.50;58.90;18.60;96308.00;;;;6126448;23;20278;-82
2023/06/08 00:47:45;;;;;;;2.90;2.63;;;19.50;59.00;18.60;96317.00;;;;6125696;23;20245;-82
2023/06/08 00:50:12;;;;;;;3.10;2.80;;;19.50;59.00;18.60;96309.00;;;;6099384;23;20198;-81
2023/06/08 00:52:41;;;;;;;2.53;2.40;;;19.40;58.90;18.60;96307.00;;;;6076090;23;20190;-82
2023/06/08 00:55:09;;;;;;;3.00;2.77;;;19.40;59.00;18.60;96310.00;;;;6125158;23;20265;-82
2023/06/08 00:57:39;;;;;;;2.73;2.53;;;19.40;58.90;18.60;96310.00;;;;6099323;23;20246;-82
2023/06/08 01:00:11;;;;;;;3.33;2.80;;;19.40;58.90;18.60;96315.00;;;;6100498;23;20725;-82
2023/06/08 01:02:38;;;;;;;2.83;2.63;;;19.40;59.00;18.50;96318.00;;;;6124748;23;20202;-81
2023/06/08 01:05:07;;;;;;;2.57;2.37;;;19.40;59.10;18.50;96314.00;;;;6098117;23;20269;-82
2023/06/08 01:07:50;;;;;;;3.73;2.60;;;19.40;59.20;18.50;96309.00;;;;6097614;23;20174;-81
2023/06/08 01:10:28;;;;;;;3.17;2.97;;;19.40;59.40;18.50;96306.00;;;;6123361;23;20178;-82
2023/06/08 01:13:06;;;;;;;2.97;2.77;;;19.30;59.20;18.40;96307.00;;;;6124757;23;20171;-82
2023/06/08 01:15:40;;;;;;;3.17;2.80;;;19.30;59.30;18.40;96307.00;;;;6126034;23;20190;-82
2023/06/08 01:18:10;;;;;;;2.60;2.40;;;19.30;59.40;18.40;96292.00;;;;6124080;23;20241;-82
2023/06/08 01:20:51;;;;;;;5.10;3.13;;;19.30;59.40;18.40;96300.00;;;;6099627;23;20174;-82
2023/06/08 01:23:44;;;;;;;3.20;3.00;;;19.30;59.60;18.40;96292.00;;;;6076317;23;20200;-82
2023/06/08 01:26:18;;;;;;;2.77;2.57;;;19.20;59.80;18.30;96291.00;;;;6076455;23;20181;-82
2023/06/08 01:28:49;;;;;;;3.23;2.97;;;19.20;59.40;18.30;96289.00;;;;6123592;23;20225;-82
2023/06/08 01:31:17;;;;;;;3.13;2.83;;;19.20;59.50;18.30;96284.00;;;;6123780;23;20210;-81
2023/06/08 01:33:45;;;;;;;2.70;2.60;;;19.20;59.40;18.20;96286.00;;;;6122777;23;20229;-81
2023/06/08 01:36:21;;;;;;;3.00;2.80;;;19.10;59.50;18.20;96285.00;;;;6097085;23;20521;-82
2023/06/08 01:38:59;;;;;;;2.77;2.57;;;19.10;59.60;18.20;96284.00;;;;6125020;23;20539;-82
2023/06/08 01:41:33;;;;;;;3.10;2.90;;;19.10;59.60;18.10;96288.00;;;;6124382;23;20171;-82
2023/06/08 01:44:02;;;;;;;3.10;2.90;;;19.00;59.60;18.10;96284.00;;;;6125894;23;20274;-81
2023/06/08 01:46:33;;;;;;;3.00;2.70;;;19.00;59.70;18.10;96284.00;;;;6098910;23;20175;-82
2023/06/08 01:49:04;;;;;;;3.30;3.00;;;19.00;59.90;18.10;96289.00;;;;6075852;23;20193;-82
2023/06/08 01:51:33;;;;;;;3.00;2.80;;;19.00;60.00;18.10;96283.00;;;;6099753;23;20221;-81
2023/06/08 01:54:02;;;;;;;4.03;2.97;;;19.00;60.00;18.00;96276.00;;;;6099520;23;20198;-82
2023/06/08 01:56:33;;;;;;;3.20;2.90;;;18.90;60.00;18.00;96284.00;;;;6099211;23;20213;-81
2023/06/08 01:59:00;;;;;;;3.23;3.03;;;18.90;60.30;18.00;96284.00;;;;6125320;23;20253;-81
2023/06/08 02:01:28;;;;;;;3.40;3.20;;;18.90;60.30;18.00;96270.00;;;;6124745;23;20194;-82
2023/06/08 02:03:55;;;;;;;3.00;2.80;;;18.80;60.50;17.90;96269.00;;;;6124692;23;20187;-82
2023/06/08 02:06:22;;;;;;;3.20;2.97;;;18.80;60.40;17.90;96270.00;;;;6070237;23;20213;-82
2023/06/08 02:08:50;;;;;;;3.47;3.17;;;18.80;60.40;17.90;96266.00;;;;6094494;23;20175;-81
2023/06/08 02:11:17;;;;;;;3.07;2.87;;;18.80;60.50;17.80;96274.00;;;;6093736;23;20278;-82
2023/06/08 02:13:46;;;;;;;3.50;3.20;;;18.70;60.50;17.80;96276.00;;;;6094439;23;20680;-82
2023/06/08 02:16:14;;;;;;;3.00;2.80;;;18.70;60.50;17.70;96277.00;;;;6095743;23;20560;-80
2023/06/08 02:18:41;;;;;;;2.67;2.47;;;18.70;60.50;17.70;96276.00;;;;6094670;23;20246;-82
2023/06/08 02:21:10;;;;;;;3.13;2.90;;;18.60;60.60;17.70;96269.00;;;;6094380;23;20183;-81
2023/06/08 02:23:38;;;;;;;3.20;3.00;;;18.60;60.80;17.60;96277.00;;;;6094809;23;20219;-81
2023/06/08 02:26:08;;;;;;;3.27;3.00;;;18.60;60.80;17.60;96281.00;;;;6092449;23;20176;-82
2023/06/08 02:28:36;;;;;;;3.30;3.10;;;18.50;61.10;17.60;96279.00;;;;6093473;23;20250;-81
2023/06/08 02:31:05;;;;;;;2.83;2.63;;;18.50;61.30;17.60;96278.00;;;;6093172;23;20639;-81
2023/06/08 02:33:32;;;;;;;3.40;3.20;;;18.50;61.50;17.50;96287.00;;;;6095374;23;20265;-82
2023/06/08 02:36:00;;;;;;;3.43;3.23;;;18.50;61.60;17.50;96282.00;;;;6094932;23;20254;-81
2023/06/08 02:38:28;;;;;;;3.43;3.13;;;18.40;61.60;17.50;96282.00;;;;6095339;23;20686;-82
2023/06/08 02:40:55;;;;;;;4.73;3.03;;;18.40;62.40;17.40;96283.00;;;;6095757;23;20651;-82
2023/06/08 02:43:22;;;;;;;3.43;3.23;;;18.40;61.80;17.40;96288.00;;;;6095911;23;20251;-81
2023/06/08 02:45:49;;;;;;;3.53;3.30;;;18.30;61.80;17.40;96281.00;;;;6095417;23;20702;-82
2023/06/08 02:48:18;;;;;;;3.43;3.13;;;18.30;62.00;17.30;96284.00;;;;6095717;23;20198;-82
2023/06/08 02:50:45;;;;;;;4.23;3.93;;;18.30;62.30;17.30;96280.00;;;;6097146;23;20701;-82
2023/06/08 02:53:13;;;;;;;3.83;3.53;;;18.20;62.40;17.30;96284.00;;;;6099978;23;20273;-82
2023/06/08 02:55:40;;;;;;;3.93;3.63;;;18.20;62.60;17.30;96284.00;;;;6099752;23;20171;-82
2023/06/08 02:58:09;;;;;;;4.37;3.90;;;18.20;62.90;17.30;96287.00;;;;6099849;23;20227;-82
2023/06/08 03:00:36;;;;;;;4.13;3.83;;;18.20;63.10;17.30;96283.00;;;;6100663;23;20207;-82
2023/06/08 03:03:04;;;;;;;4.50;4.20;;;18.10;63.10;17.30;96288.00;;;;6097107;23;20257;-82
2023/06/08 03:05:34;;;;;;;3.93;3.63;;;18.10;63.20;17.30;96279.00;;;;6102509;23;20234;-82
2023/06/08 03:08:02;;;;;;;3.67;3.37;;;18.10;63.50;17.30;96277.00;;;;6097906;23;20233;-81
2023/06/08 03:10:29;;;;;;;4.30;3.97;;;18.10;63.60;17.30;96278.00;;;;6122530;23;20166;-82
2023/06/08 03:12:56;;;;;;;4.27;3.97;;;18.10;63.80;17.30;96279.00;;;;6123968;23;20229;-82
2023/06/08 03:15:24;;;;;;;4.10;3.80;;;18.10;64.00;17.30;96277.00;;;;6124513;23;20174;-82
2023/06/08 03:17:51;;;;;;;4.43;4.13;;;18.10;64.10;17.30;96282.00;;;;6123057;23;20254;-82
2023/06/08 03:20:19;;;;;;;3.83;3.60;;;18.10;64.10;17.30;96279.00;;;;6096808;23;20234;-81
2023/06/08 03:22:48;;;;;;;4.30;4.00;;;18.20;64.20;17.30;96282.00;;;;6096857;23;20253;-80
2023/06/08 03:25:16;;;;;;;4.40;4.00;;;18.20;64.40;17.30;96289.00;;;;6122723;23;20678;-82
2023/06/08 03:27:43;;;;;;;4.37;4.07;;;18.20;64.40;17.40;96291.00;;;;6097443;23;20171;-82
2023/06/08 03:30:12;;;;;;;4.13;3.83;;;18.20;64.60;17.40;96289.00;;;;6074938;23;20253;-82
2023/06/08 03:32:41;;;;;;;4.27;3.97;;;18.20;64.70;17.40;96289.00;;;;6124438;23;20282;-82
2023/06/08 03:35:09;;;;;;;4.53;4.23;;;18.20;64.60;17.40;96290.00;;;;6123942;23;20249;-82
2023/06/08 03:37:36;;;;;;;4.00;3.70;;;18.30;64.70;17.50;96296.00;;;;6124006;23;20245;-82
2023/06/08 03:40:07;;;;;;;3.90;3.60;;;18.30;64.80;17.50;96290.00;;;;6124175;23;20205;-82
2023/06/08 03:42:34;;;;;;;3.83;3.53;;;18.30;65.00;17.50;96293.00;;;;6124793;23;20163;-83
2023/06/08 03:45:02;;;;;;;4.50;3.83;;;18.30;64.90;17.50;96294.00;;;;6124702;23;20722;-82
2023/06/08 03:47:31;;;;;;;4.17;3.77;;;18.40;65.00;17.60;96292.00;;;;6124756;23;20250;-81
2023/06/08 03:49:58;;;;;;;4.47;4.17;;;18.40;65.10;17.60;96299.00;;;;6098320;23;20262;-82
2023/06/08 03:52:25;;;;;;;4.10;3.80;;;18.40;65.10;17.60;96296.00;;;;6124481;23;20199;-82
2023/06/08 03:54:52;;;;;;;4.37;3.97;;;18.40;65.10;17.60;96288.00;;;;6124653;23;20190;-82
2023/06/08 03:57:21;;;;;;;4.60;4.20;;;18.40;65.10;17.60;96295.00;;;;6099339;23;20653;-81
2023/06/08 03:59:48;;;;;;;4.17;3.87;;;18.40;65.20;17.60;96294.00;;;;6076495;23;20171;-82
2023/06/08 04:02:16;;;;;;;4.50;4.20;;;18.50;65.20;17.60;96292.00;;;;6100630;23;20174;-82
2023/06/08 04:04:44;;;;;;;4.00;3.70;;;18.50;65.20;17.60;96302.00;;;;6126851;23;20266;-82
2023/06/08 04:07:12;;;;;;;4.70;4.30;;;18.50;65.20;17.60;96302.00;;;;6125919;23;20183;-82
2023/06/08 04:09:40;;;;;;;4.37;4.00;;;18.50;65.20;17.60;96305.00;;;;6100389;23;20171;-82
2023/06/08 04:12:08;;;;;;;4.27;3.97;;;18.50;65.20;17.60;96305.00;;;;6125817;23;20206;-82
2023/06/08 04:14:37;;;;;;;4.13;3.83;;;18.50;65.30;17.60;96306.00;;;;6125839;23;20314;-81
2023/06/08 04:17:05;;;;;;;4.10;3.80;;;18.50;65.40;17.60;96300.00;;;;6098979;23;20210;-82
2023/06/08 04:19:32;;;;;;;4.27;3.97;;;18.40;65.40;17.60;96298.00;;;;6123595;23;20167;-82
2023/06/08 04:22:00;;;;;;;4.00;3.80;;;18.50;65.60;17.70;96305.00;;;;6122774;23;20182;-82
2023/06/08 04:24:28;;;;;;;4.63;4.23;;;18.50;65.80;17.70;96311.00;;;;6074756;23;20218;-82
2023/06/08 04:26:56;;;;;;;4.27;3.80;;;18.50;66.00;17.70;96301.00;;;;6123655;23;20179;-81
2023/06/08 04:29:24;;;;;;;4.20;3.80;;;18.50;66.40;17.80;96311.00;;;;6051070;23;20253;-82
2023/06/08 04:31:53;;;;;;;4.67;4.33;;;18.50;67.30;17.80;96301.00;;;;6125592;23;20229;-82
2023/06/08 04:34:20;;;;;;;4.57;4.10;;;18.60;66.90;17.90;96307.00;;;;6100206;23;20187;-83
2023/06/08 04:36:50;;;;;;;4.83;4.43;;;18.60;66.90;17.90;96309.00;;;;6125531;23;20743;-82
2023/06/08 04:39:19;;;;;;;4.40;4.10;;;18.70;67.40;17.90;96304.00;;;;6100749;23;20674;-82
2023/06/08 04:41:47;;;;;;;4.67;4.37;;;18.70;67.30;18.00;96307.00;;;;6100186;23;20175;-82
2023/06/08 04:44:18;;;;;;;4.40;4.10;;;18.70;67.60;18.00;96308.00;;;;6125514;23;20269;-82
2023/06/08 04:46:46;;;;;;;5.00;4.60;;;18.80;67.90;18.10;96307.00;;;;6099971;23;20206;-82
2023/06/08 04:49:16;;;;;;;4.60;4.30;;;18.80;68.00;18.20;96307.00;;;;6100653;23;20515;-81
2023/06/08 04:51:47;;;;;;;4.73;4.43;;;18.90;68.40;18.20;96302.00;;;;6125620;23;20701;-82
2023/06/08 04:54:15;;;;;;;4.87;4.47;;;18.90;68.50;18.30;96307.00;;;;6100561;23;20194;-81
2023/06/08 04:56:42;;;;;;;4.77;4.47;;;19.00;68.70;18.30;96315.00;;;;6124827;23;20167;-81
2023/06/08 04:59:10;;;;;;;4.97;4.57;;;19.00;68.80;18.40;96310.00;;;;6125999;23;20225;-82
2023/06/08 05:01:38;;;;;;;5.10;4.70;;;19.10;69.00;18.50;96317.00;;;;6126201;23;20174;-81
2023/06/08 05:04:07;;;;;;;5.50;5.00;;;19.10;69.00;18.50;96320.00;;;;6099917;23;20546;-82
2023/06/08 05:06:37;;;;;;;4.93;4.63;;;19.20;69.10;18.60;96322.00;;;;6125336;23;20642;-82
2023/06/08 05:09:04;;;;;;;4.87;4.47;;;19.30;69.30;18.70;96325.00;;;;6123591;23;20175;-82
2023/06/08 05:11:32;;;;;;;4.97;4.57;;;19.30;69.20;18.70;96320.00;;;;6125179;23;20182;-82
2023/06/08 05:13:59;;;;;;;5.40;5.00;;;19.40;69.10;18.80;96327.00;;;;6097659;23;20202;-81
2023/06/08 05:16:26;;;;;;;5.03;4.63;;;19.40;69.10;18.90;96330.00;;;;6097653;23;20171;-80
2023/06/08 05:18:53;;;;;;;5.43;5.03;;;19.50;69.20;18.90;96330.00;;;;6123019;23;20175;-82
2023/06/08 05:21:21;;;;;;;5.60;5.10;;;19.60;69.10;19.00;96329.00;;;;6126536;23;20506;-82
2023/06/08 05:23:50;;;;;;;4.73;4.43;;;19.60;69.20;19.00;96331.00;;;;6101468;23;20214;-83
2023/06/08 05:26:17;;;;;;;5.13;4.73;;;19.70;69.30;19.10;96333.00;;;;6136712;23;20231;-82
2023/06/08 05:28:44;;;;;;;5.50;5.10;;;19.70;69.10;19.10;96337.00;;;;6074899;23;20174;-81
2023/06/08 05:31:12;;;;;;;5.73;5.23;;;19.80;69.10;19.20;96339.00;;;;6148174;23;20171;-82
2023/06/08 05:33:39;;;;;;;5.10;4.80;;;19.80;69.00;19.30;96337.00;;;;6111817;23;20202;-83
2023/06/08 05:36:07;;;;;;;5.57;5.17;;;19.90;69.10;19.30;96330.00;;;;6124902;23;20335;-82
2023/06/08 05:38:34;;;;;;;5.43;5.03;;;19.90;69.10;19.40;96329.00;;;;6099718;23;20182;-82
2023/06/08 05:41:03;;;;;;;5.03;4.73;;;20.00;69.30;19.40;96330.00;;;;6125519;23;20536;-82
2023/06/08 05:43:30;;;;;;;5.20;4.80;;;20.00;69.10;19.50;96327.00;;;;6125921;23;20273;-82
2023/06/08 05:45:58;;;;;;;5.40;5.00;;;20.10;69.00;19.60;96319.00;;;;6125285;23;20178;-82
2023/06/08 05:48:25;;;;;;;4.60;4.30;;;20.20;69.10;19.60;96324.00;;;;6099751;23;20198;-82
2023/06/08 05:50:53;;;;;;;4.73;4.43;;;20.20;69.00;19.70;96323.00;;;;6100156;23;20509;-82
2023/06/08 05:53:20;;;;;;;4.43;4.13;;;20.30;69.00;19.70;96329.00;;;;6074771;23;20205;-82
2023/06/08 05:55:47;;;;;;;5.07;4.67;;;20.30;68.90;19.80;96325.00;;;;6099558;23;20223;-82
2023/06/08 05:58:17;;;;;;;4.60;4.30;;;20.40;68.80;19.80;96326.00;;;;6125366;23;20225;-83
2023/06/08 06:00:44;;;;;;;4.87;4.57;;;20.40;68.90;19.90;96329.00;;;;6125086;23;20173;-82
2023/06/08 06:03:12;;;;;;;4.17;3.87;;;20.50;68.80;19.90;96328.00;;;;6124863;23;20238;-83
2023/06/08 06:05:39;;;;;;;4.97;4.57;;;20.50;68.90;20.00;96326.00;;;;6124767;23;20257;-83
2023/06/08 06:08:06;;;;;;;5.00;4.60;;;20.60;68.90;20.10;96325.00;;;;6098453;23;20206;-80
2023/06/08 06:10:34;;;;;;;5.03;4.63;;;20.60;68.90;20.20;96326.00;;;;6097480;23;20225;-82
2023/06/08 06:13:01;;;;;;;4.97;4.57;;;20.70;69.00;20.20;96325.00;;;;6123192;23;20198;-82
2023/06/08 06:15:30;;;;;;;5.13;4.73;;;20.80;69.00;20.30;96321.00;;;;6123927;23;20211;-82
2023/06/08 06:17:58;;;;;;;4.80;4.50;;;20.80;69.00;20.40;96328.00;;;;6123021;23;20241;-82
2023/06/08 06:20:27;;;;;;;5.40;4.90;;;20.90;68.90;20.50;96330.00;;;;6122819;23;20635;-82
2023/06/08 06:22:54;;;;;;;4.40;4.10;;;21.00;69.00;20.60;96329.00;;;;6123550;23;20224;-81
2023/06/08 06:25:22;;;;;;;4.40;4.07;;;21.10;69.30;20.70;96325.00;;;;6125232;23;20253;-83
2023/06/08 06:27:49;;;;;;;4.77;4.47;;;21.20;68.90;20.80;96328.00;;;;6051547;23;20177;-82
2023/06/08 06:30:17;;;;;;;4.90;4.60;;;21.30;68.20;20.90;96329.00;;;;6051723;23;20532;-82
2023/06/08 06:32:46;;;;;;;4.87;4.43;;;21.40;68.10;21.00;96334.00;;;;6099087;23;20240;-83
2023/06/08 06:35:13;;;;;;;4.67;4.37;;;21.50;67.90;21.10;96340.00;;;;6125277;23;20225;-83
2023/06/08 06:37:41;;;;;;;4.17;3.90;;;21.50;67.70;21.10;96329.00;;;;6124652;23;20226;-83
2023/06/08 06:40:09;;;;;;;4.80;4.50;;;21.60;67.50;21.20;96334.00;;;;6051776;23;20550;-83
2023/06/08 06:42:39;;;;;;;5.03;4.63;;;21.70;67.30;21.30;96332.00;;;;6098685;23;20179;-83
2023/06/08 06:45:11;;;;;;;4.60;4.20;;;21.80;67.00;21.30;96337.00;;;;6123843;23;20198;-82
2023/06/08 06:47:39;;;;;;;4.83;4.53;;;21.80;66.90;21.40;96342.00;;;;6100697;23;20170;-83
2023/06/08 06:50:10;;;;;;;5.27;4.80;;;21.90;66.70;21.50;96338.00;;;;6125746;23;20178;-88
2023/06/08 06:52:38;;;;;;;5.10;4.70;;;22.00;66.70;21.50;96342.00;;;;6125645;23;20191;-88
2023/06/08 06:55:06;;;;;;;4.73;4.43;;;22.00;66.70;21.60;96347.00;;;;6101003;23;20281;-89
2023/06/08 06:57:34;;;;;;;4.80;4.40;;;22.10;66.80;21.60;96341.00;;;;6075554;23;20570;-89
2023/06/08 07:00:07;;;;;;;4.67;4.37;;;22.20;66.80;21.70;96342.00;;;;6124718;23;20193;-82
2023/06/08 07:02:37;;;;;;;4.47;4.17;;;22.20;66.70;21.80;96348.00;;;;6100686;23;20197;-82
2023/06/08 07:05:06;;;;;;;4.43;4.13;;;22.20;66.50;21.90;96345.00;;;;6099205;23;20197;-81
2023/06/08 07:07:36;;;;;;;4.13;3.83;;;22.30;66.60;22.00;96346.00;;;;6126456;23;20189;-81
2023/06/08 07:10:04;;;;;;;4.47;4.17;;;22.40;67.50;22.10;96353.00;;;;6128785;23;20262;-81
2023/06/08 07:12:32;;;;;;;4.17;3.87;;;22.50;66.80;22.20;96348.00;;;;6102833;23;20238;-81
2023/06/08 07:15:00;;;;;;;4.43;4.13;;;22.60;66.80;22.30;96346.00;;;;6102209;23;20194;-82
2023/06/08 07:17:28;;;;;;;4.47;4.17;;;22.70;66.50;22.40;96354.00;;;;6128232;23;20665;-81
2023/06/08 07:19:55;;;;;;;3.73;3.53;;;22.80;66.30;22.60;96352.00;;;;6129433;23;20638;-83
2023/06/08 07:22:23;;;;;;;4.30;3.93;;;22.90;66.30;22.70;96353.00;;;;6131006;23;20182;-83
2023/06/08 07:24:52;;;;;;;3.90;3.70;;;23.00;66.30;22.80;96357.00;;;;6104772;23;20261;-82
2023/06/08 07:27:19;;;;;;;4.30;3.90;;;23.20;66.10;23.00;96348.00;;;;6132071;23;20185;-83
2023/06/08 07:29:47;;;;;;;3.77;3.53;;;23.30;65.90;23.10;96352.00;;;;6131658;23;20175;-83
2023/06/08 07:32:15;;;;;;;4.17;3.87;;;23.40;65.60;23.20;96354.00;;;;6132208;23;20171;-83
2023/06/08 07:34:43;;;;;;;4.10;3.80;;;23.60;65.20;23.40;96350.00;;;;6107711;23;20213;-85
2023/06/08 07:37:10;;;;;;;3.47;3.27;;;23.70;64.80;23.50;96353.00;;;;6107094;23;20182;-81
2023/06/08 07:39:38;;;;;;;3.57;3.37;;;23.90;64.70;23.70;96353.00;;;;6085962;23;20563;-81
2023/06/08 07:42:08;;;;;;;3.90;3.60;;;24.00;64.60;23.80;96349.00;;;;6136455;23;20205;-81
2023/06/08 07:44:36;;;;;;;3.20;3.00;;;24.10;64.30;23.90;96351.00;;;;6109583;23;20191;-81
2023/06/08 07:47:03;;;;;;;2.93;2.73;;;24.30;63.80;24.10;96345.00;;;;6136444;23;20176;-81
2023/06/08 07:49:32;;;;;;;3.40;3.20;;;24.40;63.50;24.20;96353.00;;;;6111033;23;20177;-81
2023/06/08 07:51:59;;;;;;;3.47;3.27;;;24.60;63.20;24.30;96344.00;;;;6111280;23;20253;-81
2023/06/08 07:54:27;;;;;;;3.07;2.87;;;24.70;62.30;24.50;96343.00;;;;6138656;23;20261;-82
2023/06/08 07:56:55;;;;;;;3.17;2.97;;;24.80;61.90;24.60;96349.00;;;;6114271;23;20178;-81
2023/06/08 07:59:24;;;;;;;2.67;2.53;;;24.90;61.40;24.80;96345.00;;;;6139975;23;20579;-81
2023/06/08 08:01:51;;;;;;;2.80;2.70;;;25.10;61.00;24.90;96338.00;;;;6136982;23;20642;-81
2023/06/08 08:04:19;;;;;;;3.00;2.80;;;25.20;60.50;25.00;96337.00;;;;6107996;23;20198;-82
2023/06/08 08:06:47;;;;;;;2.60;2.47;;;25.30;60.10;25.10;96337.00;;;;6126392;23;20178;-79
2023/06/08 08:09:15;;;;;;;2.27;2.10;;;25.40;60.10;25.20;96343.00;;;;6125496;23;20254;-82
2023/06/08 08:11:43;;;;;;;2.10;2.00;;;25.50;59.90;25.30;96337.00;;;;6121995;23;20697;-82
2023/06/08 08:14:16;;;;;;;2.30;2.20;;;25.60;59.80;25.40;96338.00;;;;6098338;23;20225;-84
2023/06/08 08:16:50;;;;;;;2.27;2.10;;;25.70;59.20;25.50;96341.00;;;;6098601;23;20527;-81
2023/06/08 08:19:17;;;;;;;2.30;2.10;;;25.80;58.80;25.60;96338.00;;;;6126203;23;20159;-82
2023/06/08 08:21:45;;;;;;;2.10;1.90;;;25.90;59.20;25.70;96344.00;;;;6101152;23;20171;-81
2023/06/08 08:24:12;;;;;;;2.27;2.17;;;26.00;58.80;25.90;96339.00;;;;6126450;23;20199;-82
2023/06/08 08:26:41;;;;;;;2.30;2.10;;;26.20;58.60;26.00;96341.00;;;;6125370;23;20243;-85
2023/06/08 08:29:09;;;;;;;2.03;1.93;;;26.30;58.40;26.10;96341.00;;;;6126515;23;20182;-84
2023/06/08 08:31:36;;;;;;;2.20;2.10;;;26.40;58.10;26.30;96334.00;;;;6100487;23;20207;-85
2023/06/08 08:34:06;;;;;;;2.40;2.27;;;26.60;57.90;26.40;96340.00;;;;6125948;23;20265;-84
2023/06/08 08:36:33;;;;;;;2.43;2.23;;;26.70;57.70;26.60;96335.00;;;;6075705;23;20174;-85
2023/06/08 08:39:00;;;;;;;2.33;2.23;;;26.80;57.40;26.70;96340.00;;;;6077757;23;20278;-85
2023/06/08 08:41:29;;;;;;;2.00;1.90;;;27.00;57.20;26.90;96332.00;;;;6126222;23;20565;-86
2023/06/08 08:44:03;;;;;;;1.83;1.73;;;27.10;57.10;27.00;96331.00;;;;6125297;23;20191;-86
2023/06/08 08:46:34;;;;;;;1.97;1.87;;;27.20;56.90;27.20;96335.00;;;;6100125;23;20789;-86
2023/06/08 08:49:11;;;;;;;2.13;2.03;;;27.40;56.60;27.30;96336.00;;;;6125726;23;20171;-84
2023/06/08 08:51:39;;;;;;;1.92;1.83;;;27.60;56.30;27.50;96339.00;;;;6099786;23;20179;-86
2023/06/08 08:54:09;;;;;;;2.17;1.90;;;27.70;56.00;27.60;96341.00;;;;6125904;23;20211;-85
2023/06/08 08:56:37;;;;;;;1.95;1.85;;;27.90;55.50;27.80;96336.00;;;;6124945;23;20486;-85
2023/06/08 08:59:06;;;;;;;2.15;2.05;;;28.00;55.40;27.90;96329.00;;;;6098211;23;20693;-83
2023/06/08 09:01:34;;;;;;;1.95;1.70;;;28.10;54.70;28.00;96335.00;;;;6098562;23;20722;-85
2023/06/08 09:04:03;;;;;;;1.70;1.60;;;28.30;54.60;28.20;96328.00;;;;6124416;23;20269;-85
2023/06/08 09:06:32;;;;;;;1.85;1.75;;;28.40;54.40;28.30;96336.00;;;;6124839;23;20515;-88
2023/06/08 09:09:00;;;;;;;2.17;1.95;;;28.50;54.20;28.40;96328.00;;;;6099825;23;20253;-87
2023/06/08 09:11:27;;;;;;;2.08;1.98;;;28.60;54.10;28.60;96334.00;;;;6125830;23;20175;-86
2023/06/08 09:14:09;;;;;;;2.03;1.80;;;28.80;53.80;28.70;96334.00;;;;6125233;23;20194;-87
2023/06/08 09:16:45;;;;;;;1.83;1.73;;;28.90;53.00;28.90;96337.00;;;;6100116;23;20179;-86
2023/06/08 09:19:13;;;;;;;2.10;2.00;;;29.10;52.80;29.00;96333.00;;;;6125216;23;20178;-86
2023/06/08 09:21:43;;;;;;;1.90;1.80;;;29.20;52.50;29.20;96330.00;;;;6099520;23;20265;-85
2023/06/08 09:24:14;;;;;;;1.85;1.75;;;29.40;52.00;29.30;96329.00;;;;6125026;23;20191;-85
2023/06/08 09:26:46;;;;;;;1.83;1.60;;;29.50;51.40;29.50;96324.00;;;;6125059;23;20175;-86
2023/06/08 09:29:31;;;;;;;1.95;1.85;;;29.70;51.40;29.70;96334.00;;;;6125542;23;20178;-86
2023/06/08 09:32:01;;;;;;;1.73;1.63;;;29.90;51.20;29.80;96328.00;;;;6125797;23;20159;-86
2023/06/08 09:34:33;;;;;;;1.67;1.50;;;30.10;50.90;29.90;96325.00;;;;6126201;23;20249;-86
2023/06/08 09:37:11;;;;;;;1.95;1.85;;;30.20;50.80;30.10;96321.00;;;;6124656;23;20174;-84
2023/06/08 09:39:43;;;;;;;1.42;1.33;;;30.40;50.00;30.20;96318.00;;;;6125889;23;20154;-86
2023/06/08 09:42:11;;;;;;;1.52;1.42;;;30.60;50.20;30.40;96315.00;;;;6076323;23;20249;-86
2023/06/08 09:44:40;;;;;;;1.58;1.48;;;30.80;50.00;30.50;96315.00;;;;6099619;23;20596;-84
2023/06/08 09:47:23;;;;;;;1.77;1.55;;;30.90;49.70;30.70;96311.00;;;;6125081;23;20523;-86
2023/06/08 09:49:51;;;;;;;1.42;1.40;;;31.20;48.80;30.90;96318.00;;;;6124552;23;20159;-86
2023/06/08 09:52:23;;;;;;;1.75;1.65;;;31.40;49.40;31.10;96313.00;;;;6125759;23;20171;-89
2023/06/08 09:54:52;;;;;;;1.70;1.60;;;31.60;48.60;31.30;96306.00;;;;6125342;23;20634;-85
2023/06/08 09:57:21;;;;;;;1.85;1.75;;;31.90;48.40;31.50;96311.00;;;;6123899;23;20182;-84
2023/06/08 09:59:55;;;;;;;1.55;1.45;;;32.10;48.10;31.70;96318.00;;;;6123776;23;20178;-84
2023/06/08 10:02:31;;;;;;;2.10;2.00;;;32.30;47.10;31.80;96310.00;;;;6097796;23;20182;-85
2023/06/08 10:05:09;;;;;;;1.67;1.58;;;32.50;47.00;31.90;96305.00;;;;6123042;23;20218;-86
2023/06/08 10:07:45;;;;;;;1.33;1.30;;;32.70;46.40;32.10;96308.00;;;;6125272;23;20218;-87
2023/06/08 10:10:21;;;;;;;1.30;1.20;;;32.80;46.30;32.30;96306.00;;;;6099870;23;20241;-85
2023/06/08 10:12:49;;;;;;;1.50;1.40;;;33.00;46.10;32.50;96299.00;;;;6124273;23;20606;-86
2023/06/08 10:15:19;;;;;;;1.60;1.50;;;33.10;46.60;32.70;96307.00;;;;6075164;23;20281;-85
2023/06/08 10:17:48;;;;;;;1.35;1.30;;;33.30;46.40;32.90;96302.00;;;;6124407;23;20709;-87
2023/06/08 10:20:17;;;;;;;1.40;1.30;;;33.50;45.80;33.10;96311.00;;;;6102259;23;20559;-85
2023/06/08 10:22:46;;;;;;;1.42;1.30;;;33.70;45.20;33.20;96307.00;;;;6131720;23;20546;-80
2023/06/08 10:25:16;;;;;;;1.38;1.27;;;33.80;44.30;33.30;96304.00;;;;6136818;23;20202;-79
2023/06/08 10:27:51;;;;;;;2.15;1.52;;;34.00;44.40;33.40;96305.00;;;;6138450;23;20177;-81
2023/06/08 10:30:30;;;;;;;1.40;1.30;;;34.10;42.90;33.50;96303.00;;;;6110986;23;20277;-81
2023/06/08 10:33:09;;;;;;;1.48;1.38;;;34.20;43.00;33.50;96293.00;;;;6128223;23;20174;-81
2023/06/08 10:35:37;;;;;;;1.58;1.48;;;34.30;42.90;33.60;96299.00;;;;6101975;23;20198;-82
2023/06/08 10:38:16;;;;;;;1.65;1.52;;;34.30;43.50;33.70;96295.00;;;;6126112;23;20191;-86
2023/06/08 10:40:47;;;;;;;1.45;1.35;;;34.40;42.40;33.80;96296.00;;;;6125548;23;20182;-86
2023/06/08 10:43:15;;;;;;;1.52;1.42;;;34.40;43.00;33.80;96291.00;;;;6124816;23;20269;-88
2023/06/08 10:45:46;;;;;;;2.60;1.38;;;34.40;42.50;33.80;96289.00;;;;6124930;23;20286;-90
2023/06/08 10:48:18;;;;;;;1.65;1.55;;;34.40;42.60;33.90;96278.00;;;;6099427;23;20697;-88
2023/06/08 10:50:47;;;;;;;1.80;1.70;;;34.40;41.80;33.80;96285.00;;;;6124509;23;20241;-85
2023/06/08 10:53:18;;;;;;;1.40;1.30;;;34.40;42.40;33.70;96280.00;;;;6125030;23;20274;-87
2023/06/08 10:55:49;;;;;;;1.70;1.30;;;34.30;41.80;33.70;96285.00;;;;6099332;23;20198;-87
2023/06/08 10:58:21;;;;;;;1.30;1.30;;;34.20;41.70;33.60;96277.00;;;;6099948;23;20163;-89
2023/06/08 11:00:52;;;;;;;1.30;1.20;;;34.10;41.10;33.50;96279.00;;;;6099090;23;20190;-89
2023/06/08 11:03:22;;;;;;;1.35;1.33;;;34.00;40.90;33.30;96270.00;;;;6099739;23;20682;-88